createdAt,value
2022-11-12T00:01:01.541Z,10.93
2022-11-12T00:03:29.253Z,11.20
2022-11-12T00:05:56.867Z,9.88
2022-11-12T00:08:24.949Z,9.77
2022-11-12T00:10:52.920Z,9.52
2022-11-12T00:13:22.005Z,9.90
2022-11-12T00:15:49.680Z,10.60
2022-11-12T00:18:17.379Z,12.02
2022-11-12T00:20:45.444Z,10.65
2022-11-12T00:23:13.147Z,10.23
2022-11-12T00:25:41.155Z,11.07
2022-11-12T00:28:10.793Z,9.43
2022-11-12T00:30:41.177Z,8.23
2022-11-12T00:33:08.957Z,8.43
2022-11-12T00:35:36.691Z,7.88
2022-11-12T00:38:04.404Z,9.98
2022-11-12T00:40:32.139Z,9.40
2022-11-12T00:42:59.831Z,9.00
2022-11-12T00:45:27.559Z,8.23
2022-11-12T00:47:57.504Z,8.88
2022-11-12T00:50:25.853Z,8.88
2022-11-12T00:52:53.944Z,8.77
2022-11-12T00:55:21.612Z,8.90
2022-11-12T00:57:49.285Z,7.93
2022-11-12T01:00:17.784Z,8.77
2022-11-12T01:02:50.709Z,9.43
2022-11-12T01:05:21.167Z,8.57
2022-11-12T01:07:54.703Z,9.98
2022-11-12T01:10:23.676Z,9.30
2022-11-12T01:12:51.311Z,9.87
2022-11-12T01:15:19.094Z,8.70
2022-11-12T01:17:46.792Z,9.40
2022-11-12T01:20:14.541Z,8.90
2022-11-12T01:22:43.613Z,9.90
2022-11-12T01:25:11.281Z,10.60
2022-11-12T01:27:38.908Z,9.10
2022-11-12T01:30:07.391Z,8.63
2022-11-12T01:32:38.302Z,8.25
2022-11-12T01:35:06.716Z,10.87
2022-11-12T01:37:34.453Z,10.40
2022-11-12T01:40:03.717Z,11.07
2022-11-12T01:42:32.633Z,11.70
2022-11-12T01:45:00.326Z,10.88
2022-11-12T01:47:30.066Z,9.30
2022-11-12T01:50:00.854Z,10.10
2022-11-12T01:52:32.321Z,8.68
2022-11-12T01:55:06.799Z,10.18
2022-11-12T01:57:38.356Z,9.30
2022-11-12T02:00:10.153Z,8.98
2022-11-12T02:02:38.259Z,9.23
2022-11-12T02:05:08.563Z,9.48
2022-11-12T02:07:37.181Z,8.32
2022-11-12T02:10:07.932Z,8.65
2022-11-12T02:12:53.617Z,8.40
2022-11-12T02:15:21.383Z,7.75
2022-11-12T02:17:49.196Z,8.60
2022-11-12T02:20:17.779Z,8.05
2022-11-12T02:22:47.031Z,7.20
2022-11-12T02:25:18.731Z,6.53
2022-11-12T02:27:46.755Z,6.63
2022-11-12T02:30:14.500Z,6.50
2022-11-12T02:32:42.299Z,8.00
2022-11-12T02:35:10.321Z,11.85
2022-11-12T02:37:37.956Z,8.27
2022-11-12T02:40:08.994Z,8.25
2022-11-12T02:42:36.788Z,7.97
2022-11-12T02:45:05.276Z,6.07
2022-11-12T02:47:32.969Z,5.60
2022-11-12T02:50:00.611Z,5.15
2022-11-12T02:52:28.325Z,6.50
2022-11-12T02:54:56.065Z,6.10
2022-11-12T02:57:25.484Z,5.53
2022-11-12T02:59:53.166Z,5.40
2022-11-12T03:02:20.933Z,5.03
2022-11-12T03:04:49.742Z,4.93
2022-11-12T03:07:17.667Z,5.55
2022-11-12T03:09:45.357Z,6.10
2022-11-12T03:12:13.209Z,6.40
2022-11-12T03:14:42.344Z,7.43
2022-11-12T03:17:10.182Z,6.23
2022-11-12T03:19:37.812Z,8.23
2022-11-12T03:22:05.597Z,8.98
2022-11-12T03:24:33.255Z,8.50
2022-11-12T03:27:00.887Z,6.05
2022-11-12T03:29:28.608Z,6.55
2022-11-12T03:31:57.663Z,5.65
2022-11-12T03:34:25.355Z,6.07
2022-11-12T03:36:53.031Z,5.50
2022-11-12T03:39:20.752Z,5.80
2022-11-12T03:41:48.438Z,5.95
2022-11-12T03:44:16.057Z,6.57
2022-11-12T03:46:44.532Z,7.05
2022-11-12T03:49:13.752Z,6.75
2022-11-12T03:51:41.489Z,6.05
2022-11-12T03:54:09.240Z,5.63
2022-11-12T03:56:36.911Z,5.65
2022-11-12T03:59:05.025Z,8.18
2022-11-12T04:01:33.001Z,8.18
2022-11-12T04:04:00.779Z,9.50
2022-11-12T04:06:47.487Z,8.70
2022-11-12T04:09:15.484Z,7.57
2022-11-12T04:11:43.138Z,7.10
2022-11-12T04:14:09.788Z,6.07
2022-11-12T04:16:55.160Z,7.43
2022-11-12T04:19:40.455Z,6.07
2022-11-12T04:22:11.365Z,6.07
2022-11-12T04:24:57.866Z,6.28
2022-11-12T04:27:27.574Z,6.95
2022-11-12T04:30:13.190Z,5.70
2022-11-12T04:32:42.549Z,6.27
2022-11-12T04:35:11.051Z,7.00
2022-11-12T04:37:46.701Z,7.45
2022-11-12T04:40:33.501Z,5.55
2022-11-12T04:43:19.283Z,5.03
2022-11-12T04:45:49.488Z,6.53
2022-11-12T04:48:17.818Z,6.67
2022-11-12T04:50:46.822Z,5.88
2022-11-12T04:53:16.134Z,6.88
2022-11-12T04:55:43.753Z,6.15
2022-11-12T04:58:11.874Z,6.50
2022-11-12T05:00:39.643Z,6.07
2022-11-12T05:03:07.353Z,7.97
2022-11-12T05:05:35.007Z,6.25
2022-11-12T05:08:03.144Z,6.45
2022-11-12T05:10:32.623Z,7.68
2022-11-12T05:13:00.354Z,6.97
2022-11-12T05:15:28.103Z,6.13
2022-11-12T05:17:55.778Z,7.33
2022-11-12T05:20:23.500Z,5.90
2022-11-12T05:23:05.432Z,5.85
2022-11-12T05:25:35.326Z,7.43
2022-11-12T05:28:02.971Z,6.30
2022-11-12T05:30:30.732Z,7.20
2022-11-12T05:32:58.372Z,6.13
2022-11-12T05:35:26.080Z,5.93
2022-11-12T05:37:53.740Z,6.05
2022-11-12T05:40:21.517Z,7.00
2022-11-12T05:42:50.544Z,6.53
2022-11-12T05:45:18.254Z,7.50
2022-11-12T05:47:45.883Z,7.07
2022-11-12T05:50:13.539Z,7.25
2022-11-12T05:52:41.184Z,6.35
2022-11-12T05:55:09.536Z,6.30
2022-11-12T05:57:37.146Z,8.05
2022-11-12T06:00:07.634Z,5.80
2022-11-12T06:02:35.355Z,6.18
2022-11-12T06:05:03.178Z,5.60
2022-11-12T06:07:30.980Z,6.18
2022-11-12T06:09:58.671Z,6.37
2022-11-12T06:12:26.313Z,7.45
2022-11-12T06:14:53.941Z,6.07
2022-11-12T06:17:23.085Z,7.63
2022-11-12T06:19:50.841Z,6.30
2022-11-12T06:22:18.577Z,8.15
2022-11-12T06:24:46.494Z,7.00
2022-11-12T06:27:14.148Z,6.55
2022-11-12T06:29:41.836Z,7.75
2022-11-12T06:32:09.551Z,6.50
2022-11-12T06:34:38.614Z,6.75
2022-11-12T06:37:06.395Z,5.30
2022-11-12T06:39:34.075Z,5.80
2022-11-12T06:42:02.024Z,6.40
2022-11-12T06:44:29.838Z,6.90
2022-11-12T06:46:57.521Z,5.75
2022-11-12T06:49:25.229Z,6.17
2022-11-12T06:51:54.279Z,7.43
2022-11-12T06:54:21.978Z,6.90
2022-11-12T06:56:49.687Z,5.88
2022-11-12T06:59:17.556Z,6.63
2022-11-12T07:01:45.481Z,7.63
2022-11-12T07:04:13.228Z,6.00
2022-11-12T07:06:40.929Z,6.88
2022-11-12T07:09:10.050Z,5.80
2022-11-12T07:11:37.739Z,6.80
2022-11-12T07:14:06.562Z,6.20
2022-11-12T07:16:34.656Z,7.25
2022-11-12T07:19:02.450Z,5.97
2022-11-12T07:21:30.097Z,5.93
2022-11-12T07:23:57.791Z,5.70
2022-11-12T07:26:28.507Z,6.07
2022-11-12T07:28:56.688Z,6.25
2022-11-12T07:31:25.809Z,7.05
2022-11-12T07:33:53.532Z,6.90
2022-11-12T07:36:22.344Z,7.95
2022-11-12T07:38:52.743Z,6.90
2022-11-12T07:41:21.584Z,6.22
2022-11-12T07:43:52.199Z,6.55
2022-11-12T07:46:22.371Z,7.83
2022-11-12T07:48:50.228Z,8.63
2022-11-12T07:51:19.641Z,6.97
2022-11-12T07:53:48.134Z,7.82
2022-11-12T07:56:17.550Z,8.25
2022-11-12T07:58:45.968Z,8.18
2022-11-12T08:01:24.468Z,10.00
2022-11-12T08:03:52.532Z,9.80
2022-11-12T08:06:20.257Z,12.20
2022-11-12T08:08:47.932Z,12.75
2022-11-12T08:11:15.613Z,14.05
2022-11-12T08:13:43.249Z,13.10
2022-11-12T08:16:10.873Z,12.73
2022-11-12T08:18:39.922Z,12.82
2022-11-12T08:21:08.835Z,9.45
2022-11-12T08:23:36.464Z,9.83
2022-11-12T08:26:05.583Z,12.15
2022-11-12T08:28:34.626Z,11.93
2022-11-12T08:31:05.090Z,11.90
2022-11-12T08:33:32.712Z,11.03
2022-11-12T08:36:03.833Z,9.65
2022-11-12T08:38:31.653Z,12.55
2022-11-12T08:41:01.656Z,9.48
2022-11-12T08:43:29.236Z,9.35
2022-11-12T08:45:59.145Z,9.65
2022-11-12T08:48:27.354Z,9.75
2022-11-12T08:50:55.288Z,10.10
2022-11-12T08:53:25.188Z,9.70
2022-11-12T08:55:54.631Z,8.68
2022-11-12T08:58:22.666Z,10.68
2022-11-12T09:00:50.956Z,9.10
2022-11-12T09:03:20.150Z,9.30
2022-11-12T09:05:48.317Z,10.17
2022-11-12T09:08:18.426Z,9.63
2022-11-12T09:10:47.797Z,10.32
2022-11-12T09:13:15.442Z,8.57
2022-11-12T09:15:43.074Z,10.60
2022-11-12T09:18:13.374Z,9.00
2022-11-12T09:20:41.176Z,12.55
2022-11-12T09:23:10.695Z,9.48
2022-11-12T09:25:38.802Z,8.52
2022-11-12T09:28:12.778Z,9.05
2022-11-12T09:30:46.370Z,9.73
2022-11-12T09:33:14.405Z,10.70
2022-11-12T09:35:42.072Z,9.60
2022-11-12T09:38:09.686Z,9.23
2022-11-12T09:40:56.559Z,10.77
2022-11-12T09:43:28.520Z,10.25
2022-11-12T09:46:21.492Z,10.50
2022-11-12T09:48:49.223Z,10.70
2022-11-12T09:51:23.212Z,10.45
2022-11-12T09:53:56.247Z,10.10
2022-11-12T09:56:25.141Z,10.90
2022-11-12T09:58:54.942Z,9.60
2022-11-12T10:01:26.069Z,9.60
2022-11-12T10:04:00.318Z,10.27
2022-11-12T10:06:32.264Z,9.53
2022-11-12T10:09:05.922Z,10.02
2022-11-12T10:12:04.201Z,10.13
2022-11-12T10:14:47.470Z,11.33
2022-11-12T10:17:19.062Z,9.80
2022-11-12T10:19:55.091Z,10.25
2022-11-12T10:22:34.195Z,10.27
2022-11-12T10:25:14.170Z,9.97
2022-11-12T10:27:43.368Z,12.55
2022-11-12T10:30:17.918Z,10.93
2022-11-12T10:32:46.993Z,9.23
2022-11-12T10:35:17.519Z,9.68
2022-11-12T10:37:49.092Z,10.70
2022-11-12T10:40:29.430Z,8.85
2022-11-12T10:42:59.519Z,10.38
2022-11-12T10:45:28.899Z,10.25
2022-11-12T10:47:57.127Z,10.25
2022-11-12T10:50:26.693Z,9.10
2022-11-12T10:52:59.848Z,8.80
2022-11-12T10:55:29.023Z,9.60
2022-11-12T10:58:23.829Z,10.80
2022-11-12T11:00:58.836Z,8.13
2022-11-12T11:03:28.612Z,8.98
2022-11-12T11:05:59.403Z,8.45
2022-11-12T11:08:36.459Z,7.40
2022-11-12T11:11:26.237Z,7.78
2022-11-12T11:13:56.132Z,9.10
2022-11-12T11:16:26.606Z,7.90
2022-11-12T11:18:56.933Z,9.05
2022-11-12T11:21:53.739Z,8.18
2022-11-12T11:24:37.887Z,9.60
2022-11-12T11:27:09.421Z,7.97
2022-11-12T11:29:49.462Z,8.07
2022-11-12T11:32:36.063Z,7.65
2022-11-12T11:35:15.915Z,6.55
2022-11-12T11:37:48.109Z,7.43
2022-11-12T11:40:22.392Z,7.47
2022-11-12T11:43:04.418Z,8.02
2022-11-12T11:45:37.763Z,6.28
2022-11-12T11:48:14.030Z,7.27
2022-11-12T11:50:44.222Z,5.80
2022-11-12T11:53:20.458Z,6.47
2022-11-12T11:55:56.013Z,7.53
2022-11-12T11:58:41.127Z,6.13
2022-11-12T12:01:13.716Z,7.05
2022-11-12T12:03:53.436Z,9.60
2022-11-12T12:06:23.779Z,9.60
2022-11-12T12:09:00.788Z,7.53
2022-11-12T12:11:32.161Z,7.50
2022-11-12T12:14:28.047Z,6.60
2022-11-12T12:17:03.194Z,6.93
2022-11-12T12:19:41.392Z,7.03
2022-11-12T12:22:12.771Z,5.20
2022-11-12T12:24:47.549Z,5.40
2022-11-12T12:27:19.239Z,8.18
2022-11-12T12:29:50.023Z,6.90
2022-11-12T12:32:24.135Z,6.45
2022-11-12T12:34:58.027Z,6.55
2022-11-12T12:37:28.665Z,6.50
2022-11-12T12:40:04.374Z,6.40
2022-11-12T12:42:37.517Z,6.15
2022-11-12T12:45:23.104Z,6.55
2022-11-12T12:47:51.080Z,5.95
2022-11-12T12:50:22.431Z,6.95
2022-11-12T12:53:42.920Z,7.43
2022-11-12T12:56:44.179Z,7.70
2022-11-12T12:59:21.147Z,6.18
2022-11-12T13:01:56.388Z,5.13
2022-11-12T13:04:52.513Z,6.67
2022-11-12T13:07:42.908Z,5.63
2022-11-12T13:10:52.588Z,5.32
2022-11-12T13:13:32.596Z,7.00
2022-11-12T13:16:01.911Z,9.10
2022-11-12T13:19:00.280Z,5.63
2022-11-12T13:21:28.189Z,8.55
2022-11-12T13:24:11.016Z,6.55
2022-11-12T13:26:53.319Z,20.05
2022-11-12T13:29:27.194Z,9.30
2022-11-12T13:32:27.850Z,12.63
2022-11-12T13:35:40.274Z,8.20
2022-11-12T13:38:15.513Z,6.32
2022-11-12T13:40:46.688Z,6.40
2022-11-12T13:43:33.767Z,6.22
2022-11-12T13:46:23.656Z,6.90
2022-11-12T13:48:58.761Z,6.22
2022-11-12T13:51:31.406Z,5.63
2022-11-12T13:53:59.243Z,5.95
2022-11-12T13:56:30.376Z,5.38
2022-11-12T13:59:09.742Z,5.45
2022-11-12T14:03:18.456Z,6.50
2022-11-12T14:05:48.426Z,6.70
2022-11-12T14:08:35.182Z,5.75
2022-11-12T14:11:26.257Z,7.67
2022-11-12T14:14:02.622Z,6.40
2022-11-12T14:16:39.468Z,6.43
2022-11-12T14:19:24.189Z,7.95
2022-11-12T14:22:02.691Z,7.03
2022-11-12T14:24:33.413Z,8.00
2022-11-12T14:27:01.092Z,9.57
2022-11-12T14:29:34.185Z,10.60
2022-11-12T14:32:03.881Z,8.68
2022-11-12T14:34:34.215Z,9.33
2022-11-12T14:37:02.456Z,7.22
2022-11-12T14:39:30.832Z,10.95
2022-11-12T14:44:10.878Z,9.97
2022-11-12T14:46:46.188Z,7.88
2022-11-12T14:49:19.436Z,8.07
2022-11-12T14:51:50.416Z,7.80
2022-11-12T14:54:25.407Z,8.57
2022-11-12T14:56:53.269Z,7.78
2022-11-12T14:59:22.349Z,7.60
2022-11-12T15:02:37.377Z,8.65
2022-11-12T15:05:01.995Z,7.57
2022-11-12T15:07:32.274Z,7.85
2022-11-12T15:09:59.865Z,11.30
2022-11-12T15:12:30.123Z,8.10
2022-11-12T15:15:09.631Z,9.77
2022-11-12T15:17:38.192Z,8.93
2022-11-12T15:20:07.828Z,9.52
2022-11-12T15:22:35.834Z,11.32
2022-11-12T15:25:18.101Z,9.55
2022-11-12T15:27:45.746Z,9.00
2022-11-12T15:30:20.976Z,8.00
2022-11-12T15:32:48.615Z,8.52
2022-11-12T15:35:37.931Z,9.73
2022-11-12T15:38:07.855Z,9.70
2022-11-12T15:40:43.937Z,9.20
2022-11-12T15:43:14.683Z,7.88
2022-11-12T15:46:16.494Z,11.38
2022-11-12T15:48:44.323Z,10.27
2022-11-12T15:51:12.539Z,10.48
2022-11-12T15:53:40.100Z,10.32
2022-11-12T15:56:10.038Z,9.50
2022-11-12T15:58:40.374Z,8.82
2022-11-12T16:01:07.961Z,11.20
2022-11-12T16:03:37.046Z,10.87
2022-11-12T16:06:09.013Z,11.10
2022-11-12T16:08:37.222Z,10.18
2022-11-12T16:11:24.908Z,10.07
2022-11-12T16:13:52.607Z,12.07
2022-11-12T16:16:20.167Z,11.85
2022-11-12T16:18:49.183Z,10.55
2022-11-12T16:21:20.670Z,11.68
2022-11-12T16:23:48.656Z,11.52
2022-11-12T16:26:21.166Z,12.90
2022-11-12T16:28:48.753Z,15.45
2022-11-12T16:31:16.352Z,19.60
2022-11-12T16:33:44.961Z,17.77
2022-11-12T16:36:15.942Z,16.92
2022-11-12T16:38:43.737Z,17.00
2022-11-12T16:41:12.875Z,18.23
2022-11-12T16:43:40.661Z,17.95
2022-11-12T16:46:15.294Z,22.52
2022-11-12T16:48:42.959Z,25.02
2022-11-12T16:51:18.407Z,24.60
2022-11-12T16:53:46.564Z,26.52
2022-11-12T16:56:15.428Z,26.20
2022-11-12T16:58:43.191Z,25.48
2022-11-12T17:01:14.616Z,24.27
2022-11-12T17:03:42.846Z,26.15
2022-11-12T17:06:10.464Z,33.92
2022-11-12T17:08:39.691Z,35.85
2022-11-12T17:11:09.672Z,34.70
2022-11-12T17:13:38.630Z,34.20
2022-11-12T17:16:07.066Z,32.35
2022-11-12T17:18:35.175Z,30.13
2022-11-12T17:21:10.886Z,32.92
2022-11-12T17:23:40.161Z,32.13
2022-11-12T17:26:09.196Z,31.20
2022-11-12T17:28:37.432Z,29.15
2022-11-12T17:31:06.833Z,29.27
2022-11-12T17:33:38.604Z,27.50
2022-11-12T17:36:07.804Z,27.13
2022-11-12T17:38:35.509Z,28.42
2022-11-12T17:41:05.039Z,31.38
2022-11-12T17:43:32.902Z,24.55
2022-11-12T17:46:00.842Z,23.20
2022-11-12T17:48:28.907Z,22.80
2022-11-12T17:51:06.008Z,23.27
2022-11-12T17:53:33.706Z,25.23
2022-11-12T17:56:01.603Z,24.33
2022-11-12T18:00:07.147Z,22.70
2022-11-12T18:02:34.786Z,21.60
2022-11-12T18:05:02.463Z,22.05
2022-11-12T18:07:30.375Z,21.33
2022-11-12T18:09:58.290Z,22.23
2022-11-12T18:12:25.960Z,22.45
2022-11-12T18:14:53.585Z,22.95
2022-11-12T18:17:22.673Z,22.17
2022-11-12T18:19:50.321Z,21.80
2022-11-12T18:22:19.449Z,22.55
2022-11-12T18:24:48.141Z,23.35
2022-11-12T18:27:15.944Z,21.37
2022-11-12T18:29:45.600Z,23.23
2022-11-12T18:32:13.640Z,25.02
2022-11-12T18:34:45.091Z,24.67
2022-11-12T18:37:13.137Z,21.85
2022-11-12T18:39:41.032Z,22.63
2022-11-12T18:42:08.689Z,21.13
2022-11-12T18:44:37.521Z,23.50
2022-11-12T18:47:05.240Z,23.63
2022-11-12T18:50:15.991Z,29.42
2022-11-12T18:52:43.657Z,30.13
2022-11-12T18:55:11.520Z,30.75
2022-11-12T18:57:39.241Z,31.23
2022-11-12T19:00:07.545Z,34.13
2022-11-12T19:02:35.251Z,37.38
2022-11-12T19:05:02.944Z,37.45
2022-11-12T19:07:32.091Z,34.13
2022-11-12T19:09:59.892Z,31.65
2022-11-12T19:12:27.633Z,29.13
2022-11-12T19:14:55.430Z,28.60
2022-11-12T19:17:25.990Z,28.05
2022-11-12T19:19:56.022Z,28.00
2022-11-12T19:22:23.687Z,25.27
2022-11-12T19:24:53.070Z,25.52
2022-11-12T19:27:20.905Z,28.60
2022-11-12T19:29:49.553Z,31.88
2022-11-12T19:32:17.164Z,34.47
2022-11-12T19:34:44.820Z,34.28
2022-11-12T19:37:32.424Z,42.17
2022-11-12T19:40:01.523Z,48.15
2022-11-12T19:42:29.209Z,48.28
2022-11-12T19:44:56.852Z,39.33
2022-11-12T19:47:24.633Z,29.30
2022-11-12T19:49:52.285Z,26.25
2022-11-12T19:52:19.981Z,24.17
2022-11-12T19:54:47.748Z,22.92
2022-11-12T19:57:16.794Z,25.65
2022-11-12T19:59:44.472Z,22.75
2022-11-12T20:02:12.815Z,22.93
2022-11-12T20:04:40.574Z,22.33
2022-11-12T20:07:09.238Z,22.20
2022-11-12T20:09:37.269Z,22.45
2022-11-12T20:12:06.033Z,20.58
2022-11-12T20:14:35.261Z,20.40
2022-11-12T20:17:02.966Z,26.10
2022-11-12T20:19:30.672Z,26.48
2022-11-12T20:21:58.361Z,22.98
2022-11-12T20:24:26.054Z,27.57
2022-11-12T20:26:53.765Z,32.55
2022-11-12T20:29:21.476Z,35.97
2022-11-12T20:31:50.487Z,55.20
2022-11-12T20:34:18.153Z,57.15
2022-11-12T20:36:45.855Z,47.35
2022-11-12T20:39:13.554Z,25.73
2022-11-12T20:41:41.146Z,23.88
2022-11-12T20:44:09.119Z,23.20
2022-11-12T20:46:36.773Z,28.83
2022-11-12T20:49:06.523Z,26.70
2022-11-12T20:51:35.077Z,25.83
2022-11-12T20:54:03.263Z,25.63
2022-11-12T20:56:31.884Z,27.58
2022-11-12T20:59:00.179Z,28.20
2022-11-12T21:01:29.085Z,28.17
2022-11-12T21:03:58.029Z,31.20
2022-11-12T21:06:29.226Z,30.65
2022-11-12T21:08:59.777Z,29.63
2022-11-12T21:11:27.424Z,24.60
2022-11-12T21:13:55.304Z,23.77
2022-11-12T21:16:22.933Z,25.83
2022-11-12T21:18:50.561Z,22.92
2022-11-12T21:21:21.139Z,22.55
2022-11-12T21:23:51.291Z,23.17
2022-11-12T21:26:20.334Z,23.33
2022-11-12T21:28:49.350Z,21.63
2022-11-12T21:31:18.276Z,21.05
2022-11-12T21:33:45.927Z,21.40
2022-11-12T21:36:16.567Z,19.52
2022-11-12T21:38:44.584Z,18.35
2022-11-12T21:41:14.974Z,19.70
2022-11-12T21:43:44.630Z,23.40
2022-11-12T21:46:14.402Z,28.40
2022-11-12T21:48:42.174Z,26.75
2022-11-12T21:51:11.629Z,28.23
2022-11-12T21:53:39.814Z,29.85
2022-11-12T21:56:10.628Z,38.97
2022-11-12T21:58:39.861Z,76.32
2022-11-12T22:01:08.882Z,61.38
2022-11-12T22:03:36.637Z,52.60
2022-11-12T22:06:04.483Z,55.67
2022-11-12T22:08:32.239Z,37.97
2022-11-12T22:11:03.845Z,36.97
2022-11-12T22:13:31.669Z,25.48
2022-11-12T22:16:05.236Z,35.50
2022-11-12T22:18:34.195Z,28.40
2022-11-12T22:21:03.554Z,29.27
2022-11-12T22:23:32.967Z,45.65
2022-11-12T22:26:00.958Z,41.67
2022-11-12T22:28:29.041Z,36.08
2022-11-12T22:30:57.050Z,32.93
2022-11-12T22:33:26.090Z,30.67
2022-11-12T22:35:53.673Z,27.90
2022-11-12T22:38:21.359Z,27.58
2022-11-12T22:40:49.027Z,26.52
2022-11-12T22:43:16.614Z,28.23
2022-11-12T22:45:44.241Z,28.05
2022-11-12T22:48:11.903Z,27.02
2022-11-12T22:50:41.151Z,30.00
2022-11-12T22:53:08.883Z,23.50
2022-11-12T22:55:36.622Z,26.17
2022-11-12T22:58:04.300Z,25.50
2022-11-12T23:00:33.280Z,24.27
2022-11-12T23:03:00.973Z,23.67
2022-11-12T23:05:28.573Z,22.20
2022-11-12T23:07:57.806Z,21.55
2022-11-12T23:10:25.437Z,21.47
2022-11-12T23:12:53.131Z,21.20
2022-11-12T23:15:20.757Z,20.10
2022-11-12T23:17:48.444Z,19.50
2022-11-12T23:20:16.701Z,19.23
2022-11-12T23:22:44.332Z,19.27
2022-11-12T23:25:13.428Z,19.58
2022-11-12T23:27:41.228Z,19.77
2022-11-12T23:30:09.800Z,20.95
2022-11-12T23:32:37.403Z,19.40
2022-11-12T23:35:06.009Z,19.42
2022-11-12T23:37:33.686Z,18.77
2022-11-12T23:40:01.361Z,19.23
2022-11-12T23:42:30.444Z,19.15
2022-11-12T23:44:58.129Z,18.65
2022-11-12T23:47:25.744Z,18.42
2022-11-12T23:49:53.485Z,18.35
2022-11-12T23:52:21.156Z,18.80
2022-11-12T23:54:48.806Z,18.38
2022-11-12T23:57:16.573Z,17.90
2022-11-12T23:59:46.103Z,17.33
